Killington, VT (05751)

9:51 PM EDT on August 03, 2015 (GMT -0400)
Killington Snowmobile Tours | | Change Station
CLOSE
Current Station
Personal Weather Station
Location: Bridgewater, VT
Elevation: 1079 ft
Nearby Weather Stations

Elev 1079 ft 43.59 °N, 72.75 °W | Updated 4 seconds ago

Mostly Cloudy
Mostly Cloudy
63.1 °F
Feels Like 63.1 °F
N
0.0
Wind Variable Wind from East
Gusts 0.0 mph

Today
High -- | Low -- °F
--% Chance of Precip.
Yesterday
High -- | Low -- °F
Precip. -- in
5:42 AM 8:11 PM
Waning Gibbous, 82% visible
Pressure 29.74 in
Visibility 10.0 miles
Clouds Few 8000 ft
Mostly Cloudy 10000 ft
Mostly Cloudy 11000 ft
Dew Point 62 °F
Humidity 97%
Rainfall 0.27 in
Snow Depth Not available.
UV 0.0 out of 12
Pollen 5.60 out of 12
Air Quality Not available.
Flu Activity Not available.
METAR KLEB 040053Z 15003KT 10SM FEW080 BKN100 BKN110 19/18 A2976 RMK AO2 RAE40 SLP070 P0003 T01940178

More Conditions Fewer Conditions

Pressure 29.74 in
Visibility 10.0 miles
Clouds Few 8000 ft
Mostly Cloudy 10000 ft
Mostly Cloudy 11000 ft
Dew Point 62 °F
Humidity 97%
Rainfall 0.27 in
Snow Depth Not available.
UV 0.0 out of 12
Pollen 5.60 out of 12
Air Quality Not available.
Flu Activity Not available.
METAR KLEB 040053Z 15003KT 10SM FEW080 BKN100 BKN110 19/18 A2976 RMK AO2 RAE40 SLP070 P0003 T01940178

More Conditions Fewer Conditions

10-Day Weather Forecast

×

Almanac

Astronomy

Aug. 03, 2015 Rise Set
Actual Time
Civil Twilight
Nautical Twilight
Astronomical Twilight
Moon
Length of Visible Light
Length of Day
Tomorrow will be .
, % of the Moon is Illuminated

Today's Extremes

State Highs State Lows

Community

WunderPhotos

Upload Photos

1,843,820 photos uploaded!

WunderBlogs® & News

Nearby

Air Quality

  Air Quality AQ Index Pollutant
Not available.

Snow Depth

Station Depth Elevation

Earthquake Activity

City Distance Mag. Time & Date
Minimum magnitude displayed is 2.5.

Coastal Water Temperatures

Place Temperature

Stations

Nearby Weather Stations

Station Location Temp. Windchill Dew Point Humidity Wind Precip. Elev Updated Type